Řízení letového provozu České republiky
OPMET data - Ceska Republika Aktualizace: 02.07.2016 03:37:31  UTC
SIGMET / AIRMET - NIL
Warning / Vystraha - NIL
 
METAR / SPECI
METAR LKCV 020300Z 14005KT CAVOK 17/14 Q1015 NOSIG=
METAR LKKB 020300Z 17004KT CAVOK 17/15 Q1015 =
METAR LKKU NIL
METAR LKKV 020300Z 31003KT 280V350 CAVOK 16/15 Q1015 RMK REG QNH 1012=
METAR LKLN 020300Z AUTO 00000KT 7000 NSC 15/14 Q1015=
METAR LKMT 020330Z 18002KT CAVOK 16/15 Q1016 NOSIG RMK REG QNH 1012=
METAR LKNA 020300Z 04003KT CAVOK 19/15 Q1017=
METAR LKPD 020300Z VRB02KT CAVOK 16/15 Q1015 =
METAR LKPR 020330Z 15006KT CAVOK 17/14 Q1014 NOSIG RMK REG QNH 1012=
METAR LKTB 020330Z 03003KT CAVOK 17/15 Q1016 NOSIG RMK REG QNH 1012=
METAR LKVO NIL
TAF
TAF LKCV 011700Z 0118/0218 VRB02KT CAVOK      BECMG 0212/0214 21008KT      PROB40 TEMPO 0213/0218 27014G26KT 7000 SHRA BKN040CB=
TAF LKKB 011700Z 0118/0218 VRB02KT CAVOK      BECMG 0210/0212 26006KT SCT030      TEMPO 0211/0218 25014G24KT 7000 SHRA SCT030TCU BKN035      PROB40 TEMPO 0211/0218 34014G24KT 4000 TSRA FEW025CB BKN030=
TAF LKKU NIL
TAF LKKV 012300Z 0200/0306 VRB02KT CAVOK      BECMG 0205/0208 22007KT 9999 SCT033TCU      TEMPO 0210/0220 33020KT 4000 TSRA BKN020CB      BECMG 0220/0222 21005KT CAVOK=
TAF LKLN NIL
TAF LKMT 012300Z 0200/0306 21004KT CAVOK      BECMG 0212/0215 24013KT 9999 SCT040TCU      TEMPO 0215/0306 33023KT 5000 TSRA BKN020CB=
TAF LKNA 011700Z 0118/0218 21006KT CAVOK      BECMG 0206/0208 15012KT      PROB30 TEMPO 0212/0218 7000 SHRA SCT035TCU=
TAF AMD LKPD 012200Z 0118/0218 CNL=
TAF LKPR 012300Z 0200/0306 VRB02KT CAVOK      BECMG 0210/0212 27010KT 9999 SCT040TCU      TEMPO 0212/0221 31020KT 5000 TSRA BKN020CB      BECMG 0221/0223 22007KT CAVOK=
TAF LKTB 012300Z 0200/0306 05005KT CAVOK      BECMG 0205/0208 13010KT      BECMG 0212/0215 28005KT 9999 SCT040TCU      TEMPO 0215/0303 33020KT 5000 TSRA BKN030CB      BECMG 0303/0305 26005KT CAVOK=
TAF LKVO NIL